Terminal Aerodrome Forecast
Issued by NWS Charleston, WV

Current Version | Previous Version | Graphics & Text | Print | Product List | Glossary On
Versions: 1 2 3 4 5 6 7 8 9 10 11 12 13 14 15 16 17 18 19 20 21 22 23 24
238
FTUS41 KRLX 102320
TAFPKB
TAF
KPKB 102320Z 1100/1124 26010G15KT 4SM -SHSN BKN015 OVC020
     FM110300 26010KT P6SM BKN020
     FM110900 26008KT P6SM BKN035
     FM111900 29006KT P6SM SCT050=

USA.gov is the U.S. government's official web portal to all federal, state and local government web resources and services.